CHQ weather

Chania International Airport
Souda, Chania, Greece

Public forecast

Using degrees Celsius for public forecast. Weather courtesy of forecast.io.

Current aviation weather report (METAR) for Chania International Airport

Retrieved 2020/05/27 20:20 UTC (5 minutes ago):

LGSA 272020Z 00000KT 9999 FEW020 SCT025 16/12 Q1018

Aviation forecast (TAF) for Chania International Airport

Retrieved 2020/05/27 18:12 UTC (2 hours ago):

TAF TAF LGSA 271700Z 2718/2818 34010KT 9999 SCT025 SCT080 PROB40 TEMPO 2718/2812 5000 SHRA SCT018 FEW020TCU BKN025 PROB30 2803/2809 4000 TSRA SCT015 FEW018CB BKN025 BECMG 2801/2803 VRB05KT